• Join FlightAware (Why Join?)
  • Login
  • US Flag 
10:16PM EDT


 

Airport Tracker/Info


-or-


 

Live Flight TrackerFlight Track Log ✈ N717AN ✈ 29-Nov-2013 ✈ KJFK - EGLL / LHR

Flight Track Log - Related Links

Times and Time Zones

All times are in EST time to prevent confusion due to time zone crossing. See the N717AN flight status page for this flight to view local times or setup timezone preferences in your user account.

Time Position Orientation Groundspeed Altitude Reporting Facility
EST Latitude Longitude Course Direction KTS MPH feet Rate Location/Type
08:10PM 40.8892 -73.3653 114° Southeast  Level Estimated
08:11PM 40.9720 -73.2267 78° East  Level Estimated
08:12PM 41.0546 -73.0878 66° East  Level Estimated
08:13PM 41.1371 -72.9485 66° East  Level Estimated
08:13PM 40.5472 -73.5107 66° East 379 436 10,900  Level FlightAware ADS-B (KSNC)
08:13PM 40.5137 -73.4006 112° Southeast 426 490 12,300 2,100 Climbing FlightAware ADS-B (KSNC)
08:14PM 40.5020 -73.3392 104° East 434 499 13,400 2,760 Climbing FlightAware ADS-B (KSNC)
08:14PM 40.5017 -73.2812 90° East 439 505 14,500 2,520 Climbing FlightAware ADS-B (KSNC)
08:15PM 40.5147 -73.1695 81° East 454 522 16,100 2,580 Climbing FlightAware ADS-B (KSNC)
08:15PM 40.5282 -73.0864 78° East 464 534 17,600 2,640 Climbing FlightAware ADS-B (KSNC)
08:16PM 40.5408 -73.0137 77° East 476 548 18,800 2,460 Climbing FlightAware ADS-B (KSNC)
08:16PM 40.5577 -72.9182 77° East 487 560 20,100 2,700 Climbing FlightAware ADS-B (KSNC)
08:17PM 40.5731 -72.8311 77° East 496 571 21,500 2,520 Climbing FlightAware ADS-B (KSNC)
08:17PM 40.5894 -72.7376 77° East 505 581 22,700 2,280 Climbing FlightAware ADS-B (KSNC)
08:18PM 40.6099 -72.6191 77° East 516 594 24,200 2,160 Climbing FlightAware ADS-B (KSNC)
08:19PM 40.6279 -72.5152 77° East 525 604 25,400 2,100 Climbing FlightAware ADS-B (KSNC)
08:19PM 40.6485 -72.3955 77° East 535 616 26,800 1,980 Climbing FlightAware ADS-B (KSNC)
08:20PM 40.6663 -72.2914 77° East 543 625 27,800 1,860 Climbing FlightAware ADS-B (KSNC)
08:21PM 40.6895 -72.1548 77° East 552 635 29,100 2,160 Climbing FlightAware ADS-B (KSNC)
08:21PM 40.7097 -72.0343 77° East 548 631 30,600 2,340 Climbing FlightAware ADS-B (KSNC)
08:22PM 40.7245 -71.9562 76° East 542 624 31,800 1,740 Climbing FlightAware ADS-B (KSNC)
08:22PM 40.7803 -71.8040 64° Northeast 535 616 32,900 960 Climbing FlightAware ADS-B (KSNC)
08:23PM 40.8277 -71.7253 51° Northeast 525 604 33,000  Climbing FlightAware ADS-B (KSNC)
08:25PM 40.9975 -71.4573 50° Northeast 529 609 33,000  Level FlightAware ADS-B (KSNC)
08:26PM 41.1085 -71.2804 50° Northeast 532 612 33,000  Level FlightAware ADS-B
08:27PM 41.1710 -71.1804 50° Northeast 531 611 33,000  Level FlightAware ADS-B
08:27PM 41.2337 -71.0801 50° Northeast 531 611 33,000  Level FlightAware ADS-B
08:28PM 41.2809 -71.0041 50° Northeast 530 610 33,000  Level FlightAware ADS-B
08:28PM 41.3388 -70.9107 50° Northeast 530 610 33,000  Level FlightAware ADS-B
08:29PM 41.3878 -70.8315 50° Northeast 529 609 33,000  Level FlightAware ADS-B
08:29PM 41.4350 -70.7551 50° Northeast 530 610 33,000  Level FlightAware ADS-B
08:30PM 41.4817 -70.6795 51° Northeast 531 611 33,000  Level FlightAware ADS-B
08:30PM 41.4597 -70.7151 231° Southwest 530 610 33,000  Level FlightAware ADS-B (KOWD)
08:32PM 41.4597 -70.7151 231° Southwest 528 608 33,000  Level FlightAware ADS-B (KOWD)
08:33PM 41.4597 -70.7151 231° Southwest 531 611 33,000  Level FlightAware ADS-B (KOWD)
08:36PM 42.0499 -69.7252 51° Northeast 536 617 33,000  Level FlightAware ADS-B
08:37PM 42.0976 -69.6433 52° Northeast 538 619 33,000  Level FlightAware ADS-B
08:37PM 42.1485 -69.5552 52° Northeast 546 628 33,000  Level FlightAware ADS-B (KBOS)
08:38PM 42.1962 -69.4727 52° Northeast 548 631 33,000  Level FlightAware ADS-B (KBOS)
08:38PM 42.2413 -69.3945 52° Northeast 550 633 33,000  Level FlightAware ADS-B (KBOS)
08:39PM 42.2963 -69.2985 52° Northeast 552 635 33,000  Level FlightAware ADS-B (KBOS)
08:39PM 42.3437 -69.2158 52° Northeast 551 634 33,000  Level FlightAware ADS-B (KBOS)
08:40PM 42.3915 -69.1321 52° Northeast 553 636 33,000  Level FlightAware ADS-B (KBOS)
08:40PM 42.4393 -69.0482 52° Northeast 556 640 33,000  Level FlightAware ADS-B (KBOS)
08:41PM 42.4866 -68.9648 52° Northeast 557 641 33,000  Level FlightAware ADS-B (KBOS)
08:41PM 42.5342 -68.8808 52° Northeast 557 641 33,000  Level FlightAware ADS-B (KBOS)
08:42PM 42.5806 -68.7988 52° Northeast 556 640 33,000  Level FlightAware ADS-B (KBOS)
08:42PM 42.6220 -68.7251 53° Northeast 555 639 33,000  Level FlightAware ADS-B (KBOS)
08:43PM 42.6827 -68.6169 53° Northeast 548 631 33,000  Level FlightAware ADS-B
08:43PM 42.7053 -68.5767 53° Northeast 548 631 33,000  Level FlightAware ADS-B
08:43PM 42.7263 -68.5391 53° Northeast 548 631 33,000  Level FlightAware ADS-B
08:44PM 42.7498 -68.4971 53° Northeast 548 631 33,000  Level FlightAware ADS-B
08:44PM 42.7972 -68.4122 53° Northeast 548 631 33,000  Level FlightAware ADS-B
08:45PM 42.8504 -68.3164 53° Northeast 553 636 33,000  Level FlightAware ADS-B (CYQI)
08:45PM 42.8814 -68.2606 53° Northeast 551 634 33,000  Level FlightAware ADS-B (CYQI)
08:46PM 42.9334 -68.1665 53° Northeast 544 626 33,000  Level FlightAware ADS-B
08:46PM 42.9503 -68.1359 53° Northeast 544 626 33,000  Level FlightAware ADS-B
08:46PM 42.9653 -68.1086 53° Northeast 543 625 33,000  Level FlightAware ADS-B
08:46PM 42.9912 -68.0617 53° Northeast 548 631 33,000  Level FlightAware ADS-B (KBOS)
08:46PM 43.0108 -68.0261 53° Northeast 544 626 33,000  Level FlightAware ADS-B
08:47PM 43.0411 -67.9710 53° Northeast 546 628 33,000  Level FlightAware ADS-B
08:47PM 43.0488 -67.9568 53° Northeast 546 628 33,000  Level FlightAware ADS-B
08:47PM 43.1040 -67.8557 53° Northeast 551 634 33,000  Level FlightAware ADS-B (CYQI)
08:48PM 43.1499 -67.7713 53° Northeast 552 635 33,000  Level FlightAware ADS-B (CYQI)
08:48PM 43.1966 -67.6855 53° Northeast 552 635 33,000  Level FlightAware ADS-B (CYQI)
08:49PM 43.2753 -67.5404 53° Northeast 553 636 33,000  Level FlightAware ADS-B (CYQI)
08:50PM 43.3290 -67.4408 53° Northeast 550 633 33,000  Level FlightAware ADS-B (CYQI)
08:50PM 43.3807 -67.3447 53° Northeast 546 628 33,000  Level FlightAware ADS-B (CYQI)
08:51PM 43.4260 -67.2602 54° Northeast 545 627 33,000  Level FlightAware ADS-B (CYQI)
08:52PM 43.4717 -67.1749 54° Northeast 546 628 33,000  Level FlightAware ADS-B (CYQI)
08:52PM 43.5187 -67.0868 54° Northeast 546 628 33,000  Level FlightAware ADS-B (CYQI)
08:53PM 43.5707 -66.9932 52° Northeast 543 625 33,000  Level FlightAware ADS-B (CYQI)
08:53PM 43.6200 -66.9123 50° Northeast 539 620 33,000  Level FlightAware ADS-B (CYQI)
08:54PM 43.6691 -66.8337 49° Northeast 539 620 33,000  Level FlightAware ADS-B (CYQI)
08:54PM 43.7178 -66.7559 49° Northeast 539 620 33,000  Level FlightAware ADS-B (CYQI)
08:55PM 43.7686 -66.6747 49° Northeast 538 619 33,000  Level FlightAware ADS-B (CYQI)
08:55PM 43.8168 -66.5970 49° Northeast 539 620 33,000  Level FlightAware ADS-B (CYQI)
08:56PM 43.8566 -66.5331 49° Northeast 539 620 33,000  Level FlightAware ADS-B (CYQI)
08:56PM 43.9479 -66.3853 49° Northeast 538 619 33,000  Level FlightAware ADS-B (CYQI)
08:57PM 44.0303 -66.2518 49° Northeast 540 621 33,000  Level FlightAware ADS-B (CYQI)
08:58PM 44.0963 -66.1440 50° Northeast 540 621 33,000  Level FlightAware ADS-B (CYQI)
08:59PM 44.1500 -66.0559 50° Northeast 541 623 33,000  Level FlightAware ADS-B (CYQI)
08:59PM 44.2004 -65.9733 50° Northeast 543 625 33,000  Level FlightAware ADS-B (CYQI)
09:00PM 44.2545 -65.8843 50° Northeast 544 626 33,000  Level FlightAware ADS-B (CYQI)
09:00PM 44.3051 -65.8008 50° Northeast 544 626 33,000  Level FlightAware ADS-B (CYQI)
09:01PM 44.3527 -65.7218 50° Northeast 544 626 33,000  Level FlightAware ADS-B (CYQI)
09:01PM 44.4049 -65.6349 50° Northeast 545 627 33,000  Level FlightAware ADS-B (CYQI)
09:02PM 44.4488 -65.5618 50° Northeast 547 629 33,000  Level FlightAware ADS-B (CYQI)
09:02PM 44.5004 -65.4757 50° Northeast 547 629 33,000  Level FlightAware ADS-B (CYQI)
09:03PM 44.5686 -65.3614 50° Northeast 545 627 33,000  Level FlightAware ADS-B (CYQI)
09:03PM 44.6168 -65.2804 50° Northeast 544 626 33,000  Level FlightAware ADS-B (CYQI)
09:04PM 44.6628 -65.2027 50° Northeast 543 625 33,000  Level FlightAware ADS-B (CYQI)
09:04PM 44.7125 -65.1186 50° Northeast 542 624 33,000  Level FlightAware ADS-B (CYQI)
09:05PM 44.7576 -65.0423 50° Northeast 542 624 33,000  Level FlightAware ADS-B (CYQI)
09:05PM 44.8117 -64.9497 51° Northeast 541 623 33,000  Level FlightAware ADS-B (CYQI)
09:06PM 44.8657 -64.8574 50° Northeast 539 620 33,000  Level FlightAware ADS-B (CYQI)
09:06PM 44.9065 -64.7878 50° Northeast 538 619 33,000  Level FlightAware ADS-B (CYQI)
09:07PM 44.9675 -64.6833 50° Northeast 539 620 33,000  Level FlightAware ADS-B (CYQI)
09:08PM 45.0135 -64.6041 51° Northeast 542 624 33,000  Level FlightAware ADS-B (CYQI)
09:08PM 45.0637 -64.5170 51° Northeast 542 624 33,000  Level FlightAware ADS-B (CYQI)
09:09PM 45.1390 -64.3868 51° Northeast 542 624 33,000  Level FlightAware ADS-B (CYQI)
09:10PM 45.2091 -64.2647 51° Northeast 543 625 33,000  Level FlightAware ADS-B (CYQI)
09:10PM 45.2575 -64.1798 51° Northeast 541 623 33,000  Level FlightAware ADS-B (CYQI)
09:11PM 45.3167 -64.0167 51° Northeast 540 621 33,000  Level Moncton Center
09:12PM 45.4167 -63.8500 49° Northeast 540 621 33,000  Level Moncton Center
09:13PM 45.5167 -63.6833 49° Northeast 540 621 33,000  Level Moncton Center
09:14PM 45.6000 -63.5167 54° Northeast 540 621 33,000  Level Moncton Center
09:15PM 45.7000 -63.3500 49° Northeast 540 621 33,000  Level Moncton Center
09:16PM 45.8000 -63.1667 52° Northeast 540 621 33,000  Level Moncton Center
09:17PM 45.8833 -63.0333 48° Northeast 540 621 33,000  Level Moncton Center
09:18PM 45.9833 -62.8333 54° Northeast 540 621 33,000  Level Moncton Center
09:19PM 46.0833 -62.6667 49° Northeast 540 621 33,000  Level Moncton Center
09:20PM 46.1667 -62.4833 57° Northeast 540 621 33,000  Level Moncton Center
09:21PM 46.2500 -62.3167 54° Northeast 550 633 33,000  Level Moncton Center
09:22PM 46.3500 -62.1500 49° Northeast 540 621 33,000  Level Moncton Center
09:23PM 46.4500 -61.9667 52° Northeast 550 633 33,000  Level Moncton Center
09:24PM 46.5333 -61.8000 54° Northeast 540 621 33,000  Level Moncton Center
09:25PM 46.6333 -61.6167 51° Northeast 540 621 33,000  Level Moncton Center
09:26PM 46.7167 -61.4500 54° Northeast 550 633 33,000  Level Gander Center
09:26PM 46.7167 -61.4500 54° Northeast 540 621 33,000  Level Moncton Center
09:27PM 46.8000 -61.2833 54° Northeast 540 621 33,000  Level Moncton Center
09:28PM 46.9000 -61.0833 54° Northeast 540 621 33,000  Level Moncton Center
09:29PM 47.0000 -60.9167 49° Northeast 540 621 33,000  Level Moncton Center
09:30PM 47.0833 -60.7333 56° Northeast 550 633 33,000  Level Moncton Center
09:31PM 47.1667 -60.5500 56° Northeast 550 633 33,000  Level Moncton Center
09:32PM 47.2667 -60.3833 48° Northeast 550 633 33,000  Level Moncton Center
09:33PM 47.3500 -60.2000 56° Northeast 540 621 33,000  Level Moncton Center
09:34PM 47.4333 -60.0167 56° Northeast 540 621 33,000  Level Moncton Center
09:35PM 47.5333 -59.8333 51° Northeast 540 621 33,000  Level Moncton Center
09:36PM 47.6167 -59.6500 56° Northeast 550 633 33,000  Level Moncton Center
09:37PM 47.7167 -59.4667 51° Northeast 550 633 33,000  Level Moncton Center
09:38PM 47.8000 -59.2833 56° Northeast 550 633 33,000  Level Moncton Center
09:39PM 47.8833 -59.1000 56° Northeast 550 633 33,000  Level Moncton Center
09:40PM 47.9667 -58.9167 56° Northeast 540 621 33,000  Level Moncton Center
09:41PM 48.0667 -58.7333 51° Northeast 540 621 33,000  Level Moncton Center
09:42PM 48.1500 -58.5167 60° Northeast 540 621 33,000  Level Moncton Center
09:43PM 48.2333 -58.3667 50° Northeast 550 633 33,000  Level Moncton Center
09:44PM 48.3167 -58.1500 60° Northeast 540 621 33,000  Level Moncton Center
09:45PM 48.4167 -57.9833 48° Northeast 550 633 33,000  Level Moncton Center
09:46PM 48.5000 -57.7667 60° Northeast 540 621 33,000  Level Moncton Center
09:47PM 48.5667 -57.6000 59° Northeast 550 633 33,000  Level Gander Center
09:48PM 48.6667 -57.4000 53° Northeast 550 633 33,000  Level Moncton Center
09:49PM 48.7333 -57.2000 63° Northeast 540 621 33,000  Level Moncton Center
09:50PM 48.8000 -57.0167 61° Northeast 550 633 33,000  Level Moncton Center
09:51PM 48.8667 -56.8000 65° Northeast 550 633 33,000  Level Moncton Center
09:52PM 48.9500 -56.5833 60° Northeast 550 633 33,000  Level Moncton Center
09:53PM 49.0167 -56.3667 65° Northeast 550 633 33,000  Level Moncton Center
09:54PM 49.0833 -56.1833 61° Northeast 550 633 33,000  Level Moncton Center
09:55PM 49.1667 -55.9667 59° Northeast 550 633 33,000  Level Moncton Center
09:56PM 49.2333 -55.7667 63° Northeast 550 633 33,000  Level Moncton Center
09:57PM 49.3000 -55.5833 61° Northeast 550 633 33,000  Level Moncton Center
09:58PM 49.3667 -55.3500 66° East 550 633 33,000  Level Moncton Center
09:59PM 49.4333 -55.1333 65° Northeast 550 633 33,000  Level Moncton Center
10:00PM 49.5000 -54.9167 65° Northeast 550 633 33,000  Level Moncton Center
10:01PM 49.5833 -54.7167 57° Northeast 550 633 33,000  Level Moncton Center
10:02PM 49.6500 -54.5333 61° Northeast 550 633 33,000  Level Moncton Center
10:03PM 49.7333 -54.3000 61° Northeast 550 633 33,000  Level Moncton Center
10:04PM 49.7667 -54.0833 77° East 550 633 33,000  Level Moncton Center
10:05PM 49.8500 -53.8667 59° Northeast 550 633 33,000  Level Moncton Center
10:06PM 49.9167 -53.6667 63° Northeast 550 633 33,000  Level Moncton Center
10:07PM 49.9833 -53.4667 63° Northeast 540 621 33,000 -540 Level Moncton Center
10:08PM 50.0500 -53.2333 66° East 540 621 32,000 -540 Descending Moncton Center
10:09PM 50.1167 -53.0167 64° Northeast 560 644 32,000  Level Moncton Center
10:10PM 50.1667 -52.7833 71° East 560 644 32,000  Level Moncton Center
10:11PM 50.2333 -52.5833 62° Northeast 560 644 32,000  Level Moncton Center
10:12PM 50.3000 -52.3667 64° Northeast 560 644 32,000  Level Moncton Center
10:13PM 50.3833 -52.1333 61° Northeast 560 644 32,000  Level Moncton Center
10:14PM 50.4333 -51.9333 69° East 560 644 32,000  Level Moncton Center
10:15PM 50.5000 -51.7000 66° East 560 644 32,000  Level Moncton Center
10:16PM 50.5667 -51.4667 66° East 550 633 32,000  Level Moncton Center
10:17PM 50.6167 -51.2667 68° East 550 633 32,000  Level Moncton Center
10:18PM 50.6833 -51.0333 66° East 550 633 32,000  Level Moncton Center
10:19PM 50.7333 -50.8000 71° East 550 633 32,000  Level Moncton Center
10:20PM 50.8167 -50.5667 60° Northeast 540 621 32,000  Level Moncton Center
10:21PM 50.8500 -50.3667 75° East 540 621 32,000  Level Moncton Center
10:22PM 50.9167 -50.1667 62° Northeast 550 633 32,000  Level Moncton Center
10:23PM 50.9833 -49.9333 66° East 540 621 32,000  Level Moncton Center
10:24PM 51.0500 -49.7167 64° Northeast 550 633 32,000  Level Moncton Center
10:27PM 51.1545 -49.4404 59° Northeast  Level FlightAware Approximate
10:34PM 51.6442 -48.1044 59° Northeast  Level FlightAware Approximate
10:35PM 51.7129 -47.9112 60° Northeast  Level FlightAware Approximate
10:36PM 51.7813 -47.7174 60° Northeast  Level FlightAware Approximate
10:37PM 51.8487 -47.5213 61° Northeast  Level FlightAware Approximate
10:38PM 51.9145 -47.3246 61° Northeast  Level FlightAware Approximate
10:39PM 51.9799 -47.1273 62° Northeast  Level FlightAware Approximate
10:40PM 52.0450 -46.9294 62° Northeast  Level FlightAware Approximate
10:41PM 52.1098 -46.7310 62° Northeast  Level FlightAware Approximate
10:42PM 52.1742 -46.5320 62° Northeast  Level FlightAware Approximate
10:43PM 52.2382 -46.3322 63° Northeast  Level FlightAware Approximate
10:44PM 52.3017 -46.1318 63° Northeast  Level FlightAware Approximate
10:45PM 52.3648 -45.9308 63° Northeast  Level FlightAware Approximate
10:46PM 52.4276 -45.7292 63° Northeast  Level FlightAware Approximate
10:47PM 52.4900 -45.5271 63° Northeast  Level FlightAware Approximate
10:48PM 52.5521 -45.3243 63° Northeast  Level FlightAware Approximate
10:49PM 52.6138 -45.1210 64° Northeast  Level FlightAware Approximate
10:50PM 52.6750 -44.9170 64° Northeast  Level FlightAware Approximate
10:51PM 52.7359 -44.7124 64° Northeast  Level FlightAware Approximate
10:52PM 52.7965 -44.5073 64° Northeast  Level FlightAware Approximate
10:53PM 52.8567 -44.3016 64° Northeast  Level FlightAware Approximate
10:54PM 52.9165 -44.0953 64° Northeast  Level FlightAware Approximate
10:55PM 52.9760 -43.8885 64° Northeast  Level FlightAware Approximate
10:56PM 53.0351 -43.6811 65° Northeast  Level FlightAware Approximate
10:57PM 53.0939 -43.4731 65° Northeast  Level FlightAware Approximate
10:58PM 53.1523 -43.2645 65° Northeast  Level FlightAware Approximate
10:59PM 53.2103 -43.0554 65° Northeast  Level FlightAware Approximate
11:00PM 53.2680 -42.8458 65° Northeast  Level FlightAware Approximate
11:01PM 53.3252 -42.6355 65° Northeast  Level FlightAware Approximate
11:02PM 53.3822 -42.4247 66° East  Level FlightAware Approximate
11:03PM 53.4387 -42.2133 66° East  Level FlightAware Approximate
11:04PM 53.4949 -42.0014 66° East  Level FlightAware Approximate
11:05PM 53.5507 -41.7889 66° East  Level FlightAware Approximate
11:06PM 53.6061 -41.5759 66° East  Level FlightAware Approximate
11:07PM 53.6612 -41.3623 66° East  Level FlightAware Approximate
11:08PM 53.7158 -41.1481 67° East  Level FlightAware Approximate
11:09PM 53.7701 -40.9334 67° East  Level FlightAware Approximate
11:10PM 53.8239 -40.7185 67° East  Level FlightAware Approximate
11:11PM 53.8773 -40.5031 67° East  Level FlightAware Approximate
11:12PM 53.9303 -40.2872 67° East  Level FlightAware Approximate
11:13PM 53.9829 -40.0706 67° East  Level FlightAware Approximate
11:14PM 54.0219 -39.8463 76° East  Level FlightAware Approximate
11:15PM 54.0540 -39.6180 76° East  Level FlightAware Approximate
11:16PM 54.0856 -39.3894 77° East  Level FlightAware Approximate
11:17PM 54.1169 -39.1604 77° East  Level FlightAware Approximate
11:18PM 54.1477 -38.9311 77° East  Level FlightAware Approximate
11:19PM 54.1780 -38.7015 77° East  Level FlightAware Approximate
11:20PM 54.2079 -38.4715 77° East  Level FlightAware Approximate
11:21PM 54.2374 -38.2412 78° East  Level FlightAware Approximate
11:22PM 54.2664 -38.0106 78° East  Level FlightAware Approximate
11:23PM 54.2951 -37.7796 78° East  Level FlightAware Approximate
11:24PM 54.3232 -37.5483 78° East  Level FlightAware Approximate
11:25PM 54.3509 -37.3167 78° East  Level FlightAware Approximate
11:26PM 54.3782 -37.0848 79° East  Level FlightAware Approximate
11:27PM 54.4052 -36.8527 79° East  Level FlightAware Approximate
11:28PM 54.4316 -36.6202 79° East  Level FlightAware Approximate
11:29PM 54.4576 -36.3874 79° East  Level FlightAware Approximate
11:30PM 54.4832 -36.1543 79° East  Level FlightAware Approximate
11:31PM 54.5084 -35.9210 79° East  Level FlightAware Approximate
11:32PM 54.5330 -35.6873 80° East  Level FlightAware Approximate
11:33PM 54.5573 -35.4534 80° East  Level FlightAware Approximate
11:34PM 54.5811 -35.2192 80° East  Level FlightAware Approximate
11:35PM 54.6044 -34.9847 80° East  Level FlightAware Approximate
11:36PM 54.6273 -34.7500 80° East  Level FlightAware Approximate
11:37PM 54.6497 -34.5150 81° East  Level FlightAware Approximate
11:38PM 54.6718 -34.2798 81° East  Level FlightAware Approximate
11:39PM 54.6939 -34.0444 81° East  Level FlightAware Approximate
11:40PM 54.7156 -33.8088 81° East  Level FlightAware Approximate
11:41PM 54.7368 -33.5730 81° East  Level FlightAware Approximate
11:42PM 54.7575 -33.3369 81° East  Level FlightAware Approximate
11:43PM 54.7778 -33.1006 81° East  Level FlightAware Approximate
11:44PM 54.7976 -32.8640 82° East  Level FlightAware Approximate
11:45PM 54.8170 -32.6272 82° East  Level FlightAware Approximate
11:46PM 54.8359 -32.3902 82° East  Level FlightAware Approximate
11:47PM 54.8544 -32.1530 82° East  Level FlightAware Approximate
11:48PM 54.8723 -31.9155 82° East  Level FlightAware Approximate
11:49PM 54.8899 -31.6779 83° East  Level FlightAware Approximate
11:50PM 54.9069 -31.4400 83° East  Level FlightAware Approximate
11:51PM 54.9235 -31.2019 83° East  Level FlightAware Approximate
11:52PM 54.9397 -30.9637 83° East  Level FlightAware Approximate
11:53PM 54.9553 -30.7252 83° East  Level FlightAware Approximate
11:54PM 54.9705 -30.4866 84° East  Level FlightAware Approximate
11:55PM 54.9852 -30.2478 84° East  Level FlightAware Approximate
11:56PM 54.9995 -30.0088 84° East  Level FlightAware Approximate
11:57PM 55.0093 -29.7691 86° East  Level FlightAware Approximate
11:58PM 55.0184 -29.5292 86° East  Level FlightAware Approximate
11:59PM 55.0271 -29.2892 86° East  Level FlightAware Approximate
12:00AM 55.0353 -29.0492 86° East  Level FlightAware Approximate
12:01AM 55.0430 -28.8090 87° East  Level FlightAware Approximate
12:02AM 55.0502 -28.5688 87° East  Level FlightAware Approximate
12:03AM 55.0570 -28.3284 87° East  Level FlightAware Approximate
12:04AM 55.0633 -28.0880 87° East  Level FlightAware Approximate
12:05AM 55.0692 -27.8475 87° East  Level FlightAware Approximate
12:06AM 55.0745 -27.6069 88° East  Level FlightAware Approximate
12:07AM 55.0794 -27.3663 88° East  Level FlightAware Approximate
12:08AM 55.0838 -27.1256 88° East  Level FlightAware Approximate
12:09AM 55.0878 -26.8849 88° East  Level FlightAware Approximate
12:10AM 55.0912 -26.6441 88° East  Level FlightAware Approximate
12:11AM 55.0942 -26.4033 89° East  Level FlightAware Approximate
12:12AM 55.0967 -26.1625 89° East  Level FlightAware Approximate
12:13AM 55.0988 -25.9216 89° East  Level FlightAware Approximate
12:14AM 55.1003 -25.6807 89° East  Level FlightAware Approximate
12:15AM 55.1014 -25.4398 89° East  Level FlightAware Approximate
12:16AM 55.1020 -25.1989 90° East  Level FlightAware Approximate
12:17AM 55.1021 -24.9580 90° East  Level FlightAware Approximate
12:18AM 55.1018 -24.7170 90° East  Level FlightAware Approximate
12:19AM 55.1010 -24.4761 90° East  Level FlightAware Approximate
12:20AM 55.0997 -24.2352 91° East  Level FlightAware Approximate
12:21AM 55.0980 -23.9943 91° East  Level FlightAware Approximate
12:22AM 55.0958 -23.7534 91° East  Level FlightAware Approximate
12:23AM 55.0931 -23.5126 91° East  Level FlightAware Approximate
12:24AM 55.0900 -23.2718 91° East  Level FlightAware Approximate
12:25AM 55.0863 -23.0310 91° East  Level FlightAware Approximate
12:26AM 55.0823 -22.7903 92° East  Level FlightAware Approximate
12:27AM 55.0777 -22.5497 92° East  Level FlightAware Approximate
12:28AM 55.0727 -22.3091 92° East  Level FlightAware Approximate
12:29AM 55.0671 -22.0685 92° East  Level FlightAware Approximate
12:30AM 55.0611 -21.8281 92° East  Level FlightAware Approximate
12:31AM 55.0547 -21.5870 93° East  Level FlightAware Approximate
12:32AM 55.0477 -21.3460 93° East  Level FlightAware Approximate
12:33AM 55.0403 -21.1052 93° East  Level FlightAware Approximate
12:34AM 55.0323 -20.8644 93° East  Level FlightAware Approximate
12:35AM 55.0240 -20.6237 93° East  Level FlightAware Approximate
12:36AM 55.0151 -20.3831 94° East  Level FlightAware Approximate
12:37AM 55.0058 -20.1426 94° East  Level FlightAware Approximate
12:38AM 54.9957 -19.9023 94° East  Level FlightAware Approximate
12:39AM 54.9846 -19.6621 94° East  Level FlightAware Approximate
12:40AM 54.9731 -19.4221 95° East  Level FlightAware Approximate
12:41AM 54.9611 -19.1823 95° East  Level FlightAware Approximate
12:42AM 54.9487 -18.9426 95° East  Level FlightAware Approximate
12:43AM 54.9357 -18.7030 95° East  Level FlightAware Approximate
12:44AM 54.9224 -18.4636 95° East  Level FlightAware Approximate
12:45AM 54.9085 -18.2243 96° East  Level FlightAware Approximate
12:46AM 54.8942 -17.9853 96° East  Level FlightAware Approximate
12:47AM 54.8794 -17.7463 96° East  Level FlightAware Approximate
12:48AM 54.8641 -17.5076 96° East  Level FlightAware Approximate
12:49AM 54.8484 -17.2691 96° East  Level FlightAware Approximate
12:50AM 54.8321 -17.0307 97° East  Level FlightAware Approximate
12:51AM 54.8154 -16.7913 97° East  Level FlightAware Approximate
12:52AM 54.7981 -16.5520 97° East  Level FlightAware Approximate
12:53AM 54.7804 -16.3130 97° East  Level FlightAware Approximate
12:54AM 54.7622 -16.0741 97° East  Level FlightAware Approximate
12:55AM 54.7434 -15.8355 98° East  Level FlightAware Approximate
12:56AM 54.7238 -15.5972 98° East  Level FlightAware Approximate
12:57AM 54.7037 -15.3592 98° East  Level FlightAware Approximate
12:58AM 54.6832 -15.1214 98° East  Level FlightAware Approximate
12:59AM 54.6622 -14.8839 99° East  Level FlightAware Approximate
01:00AM 54.6407 -14.6465 99° East  Level FlightAware Approximate
01:01AM 54.6193 -14.4093 99° East  Level FlightAware Approximate
01:02AM 54.5978 -14.1723 99° East  Level FlightAware Approximate
01:03AM 54.5758 -13.9355 99° East  Level FlightAware Approximate
01:04AM 54.5534 -13.6989 99° East  Level FlightAware Approximate
01:05AM 54.5305 -13.4626 99° East  Level FlightAware Approximate
01:06AM 54.5071 -13.2266 100° East  Level FlightAware Approximate
01:07AM 54.4833 -12.9909 100° East  Level FlightAware Approximate
01:08AM 54.4590 -12.7554 100° East  Level FlightAware Approximate
01:09AM 54.4343 -12.5203 100° East  Level FlightAware Approximate
01:10AM 54.4091 -12.2854 100° East  Level FlightAware Approximate
01:10AM 54.3637 -10.4148 101° East 494 568 35,000  Level FlightAware ADS-B
01:10AM 54.3395 -10.2598 105° East 495 570 35,000  Level FlightAware ADS-B
01:11AM 54.3834 -12.0508 101° East  Level FlightAware Approximate
01:11AM 54.2984 -10.0002 105° East 496 571 35,000  Level FlightAware ADS-B
01:12AM 54.2785 -9.8763 105° East 495 570 35,000  Level FlightAware ADS-B
01:13AM 54.2282 -9.5672 105° East 493 567 35,000  Level FlightAware ADS-B
01:14AM 54.2075 -9.4409 106° East 494 568 35,000  Level FlightAware ADS-B
01:14AM 54.1897 -9.3344 106° East 494 568 35,000  Level FlightAware ADS-B
01:15AM 54.1711 -9.2223 106° East 494 568 35,000  Level FlightAware ADS-B
01:15AM 54.1503 -9.0985 106° East 493 567 35,000  Level FlightAware ADS-B
01:16AM 54.1318 -8.9888 106° East 492 566 35,000  Level FlightAware ADS-B
01:16AM 54.1152 -8.8915 106° East 492 566 35,000 -120 Level FlightAware ADS-B
01:17AM 54.0902 -8.7452 106° East 476 548 34,900  Descending FlightAware UK
01:17AM 54.0820 -8.6971 106° East 492 566 35,000 60 Climbing FlightAware ADS-B
01:18AM 54.0556 -8.5453 106° East 491 565 35,000  Level FlightAware ADS-B
01:18AM 54.0321 -8.4118 106° East 474 545 35,000  Level FlightAware UK
01:19AM 54.0286 -8.3903 106° East 491 565 35,000  Level FlightAware ADS-B
01:19AM 54.0081 -8.2739 107° East 493 567 35,000  Level FlightAware ADS-B
01:20AM 53.9749 -8.0867 107° East 491 565 35,000  Level FlightAware ADS-B
01:20AM 53.9548 -7.9744 107° East 489 563 35,000 -120 Level FlightAware ADS-B
01:21AM 53.9340 -7.8586 107° East 476 548 34,900  Descending FlightAware UK
01:21AM 53.9322 -7.8488 107° East 489 563 35,000 120 Climbing FlightAware ADS-B
01:22AM 53.9121 -7.7377 107° East 489 563 35,000  Level FlightAware ADS-B
01:22AM 53.8924 -7.6302 107° East 490 564 35,000  Level FlightAware ADS-B
01:23AM 53.8713 -7.5148 107° East 489 563 35,000  Level FlightAware ADS-B
01:23AM 53.8523 -7.4114 107° East 488 562 35,000  Level FlightAware ADS-B
01:24AM 53.8307 -7.2954 107° East 489 563 35,000  Level FlightAware ADS-B
01:24AM 53.8102 -7.1861 108° East 489 563 35,000  Level FlightAware ADS-B
01:25AM 53.7829 -7.0405 108° East 490 564 35,000  Level FlightAware ADS-B
01:25AM 53.7611 -6.9253 108° East 492 566 35,000 -120 Level FlightAware ADS-B
01:26AM 53.7307 -6.7651 108° East 478 550 34,900  Descending FlightAware UK
01:26AM 53.7257 -6.7404 108° East 491 565 35,000 120 Climbing FlightAware ADS-B
01:27AM 53.7058 -6.6367 108° East 489 563 35,000  Level FlightAware ADS-B
01:27AM 53.6805 -6.5063 108° East 487 560 35,000  Level FlightAware ADS-B
01:27AM 53.6672 -6.4372 108° East 486 559 35,000  Level FlightAware ADS-B
01:28AM 53.6519 -6.3587 108° East 486 559 35,000  Level FlightAware ADS-B
01:28AM 53.6442 -6.3197 108° East 489 563 35,000  Level FlightAware ADS-B
01:29AM 53.6213 -6.2023 108° East 474 545 35,000  Level FlightAware UK
01:29AM 53.6238 -6.2156 108° East 490 564 35,000  Level FlightAware ADS-B
01:29AM 53.6004 -6.0972 108° East 488 562 35,000  Level FlightAware ADS-B (EGOS)
01:29AM 53.5859 -6.0247 109° East 485 558 35,000  Level FlightAware ADS-B
01:30AM 53.5760 -5.9745 109° East 485 558 35,000  Level FlightAware ADS-B
01:30AM 53.5669 -5.9291 109° East 485 558 35,000  Level FlightAware ADS-B
01:30AM 53.5536 -5.8625 109° East 484 557 35,000  Level FlightAware ADS-B
01:31AM 53.5271 -5.7313 109° East 483 556 35,000  Level FlightAware ADS-B
01:31AM 53.5044 -5.6189 109° East 488 562 35,000  Level FlightAware ADS-B
01:31AM 53.4953 -5.5738 109° East 487 560 35,000  Level FlightAware ADS-B (EGOS)
01:32AM 53.4854 -5.4798 100° East 468 539 35,000  Level FlightAware ADS-B (EGBS)
01:32AM 53.4832 -5.4017 93° East 486 559 35,000  Level FlightAware ADS-B
01:32AM 53.4830 -5.3927 92° East 465 535 35,000  Level FlightAware ADS-B (EGOS)
01:33AM 53.4800 -5.2762 92° East 472 543 35,000  Level FlightAware UK
01:33AM 53.4796 -5.2706 92° East 465 535 35,000  Level FlightAware ADS-B (EGBS)
01:33AM 53.4786 -5.2452 94° East 465 535 35,000  Level FlightAware ADS-B
01:34AM 53.4733 -5.1263 94° East 469 540 35,000 -360 Level FlightAware ADS-B (EGFH / SWS)
01:34AM 53.4668 -5.0051 95° East 468 539 34,600 -960 Descending FlightAware ADS-B (EGOS)
01:34AM 53.4646 -4.9691 96° East 469 540 34,300 -900 Descending FlightAware ADS-B
01:35AM 53.4580 -4.8551 96° East 471 542 34,000 -300 Descending FlightAware ADS-B (EGFH / SWS)
01:35AM 53.4530 -4.7313 94° East 466 536 34,000  Level FlightAware ADS-B
01:36AM 53.4498 -4.6201 93° East 466 536 34,000  Level FlightAware ADS-B
01:36AM 53.4464 -4.5079 93° East 466 536 34,000  Level FlightAware ADS-B
01:37AM 53.4427 -4.3990 93° East 467 537 34,000  Level FlightAware ADS-B
01:37AM 53.4389 -4.2921 93° East 467 537 34,000  Level FlightAware ADS-B (EGBS)
01:38AM 53.4346 -4.1750 94° East 465 535 34,000  Level FlightAware ADS-B (EGXW / WTN)
01:39AM 53.4302 -4.0578 94° East 465 535 34,000  Level FlightAware ADS-B
01:39AM 53.4265 -3.9621 94° East 465 535 34,000  Level FlightAware ADS-B
01:39AM 53.4213 -3.8825 96° East 470 541 34,000  Level FlightAware ADS-B (EGBS)
01:40AM 53.4125 -3.8099 102° East 481 554 34,000  Level FlightAware ADS-B
01:40AM 53.4041 -3.7614 106° East 488 562 34,000  Level FlightAware ADS-B (EGBS)
01:40AM 53.3931 -3.7100 110° East 495 570 34,000  Level FlightAware ADS-B
01:40AM 53.3759 -3.6405 113° Southeast 495 570 34,000  Level FlightAware ADS-B
01:41AM 53.3662 -3.6018 113° Southeast 494 568 34,000  Level FlightAware ADS-B (EGXW / WTN)
01:41AM 53.3489 -3.5334 113° Southeast 494 568 34,000  Level FlightAware ADS-B
01:41AM 53.3320 -3.4730 115° Southeast 499 574 34,000  Level FlightAware ADS-B (EGBS)
01:41AM 53.3241 -3.4481 118° Southeast 502 578 34,000  Level FlightAware ADS-B
01:42AM 53.3039 -3.3923 121° Southeast 507 583 34,000  Level FlightAware ADS-B
01:42AM 53.2754 -3.3266 126° Southeast 515 593 34,000  Level FlightAware ADS-B (EGXW / WTN)
01:42AM 53.2648 -3.3050 129° Southeast 518 596 34,000  Level FlightAware ADS-B
01:42AM 53.2689 -3.3133 310° West 519 597 34,000  Level FlightAware ADS-B (EGCD)
01:43AM 53.2148 -3.2130 132° Southeast 522 601 34,000  Level FlightAware ADS-B
01:43AM 53.2037 -3.1929 133° Southeast 522 601 34,000  Level FlightAware ADS-B (EGBS)
01:43AM 53.1644 -3.1222 133° Southeast 522 601 34,000  Level FlightAware ADS-B
01:43AM 53.1542 -3.1040 133° Southeast 523 602 34,000  Level FlightAware ADS-B (EGBS)
01:44AM 53.1150 -3.0336 133° Southeast 521 600 34,000  Level FlightAware ADS-B
01:44AM 53.1026 -3.0115 133° Southeast 517 595 34,000  Level FlightAware ADS-B (EGGP / LPL)
01:44AM 53.0652 -2.9446 133° Southeast 507 583 34,000  Level FlightAware ADS-B
01:44AM 53.0541 -2.9248 133° Southeast 504 580 34,000  Level FlightAware ADS-B
01:45AM 53.0171 -2.8586 133° Southeast 501 577 34,000  Level FlightAware ADS-B
01:45AM 53.0029 -2.8330 133° Southeast 500 575 34,000  Level FlightAware ADS-B (EGXW / WTN)
01:45AM 52.9695 -2.7730 133° Southeast 499 574 34,000  Level FlightAware ADS-B
01:45AM 52.9534 -2.7441 133° Southeast 499 574 34,000  Level FlightAware ADS-B (EGFH / SWS)
01:46AM 52.9213 -2.6870 133° Southeast 497 572 34,000  Level FlightAware ADS-B
01:46AM 52.9140 -2.6748 135° Southeast 499 574 34,000 -600 Level FlightAware ADS-B (EGFF / CWL)
01:46AM 52.9054 -2.6614 137° Southeast 496 571 33,900 -1,140 Descending FlightAware ADS-B
01:46AM 52.8867 -2.6345 139° Southeast 504 580 33,700 -1,500 Descending FlightAware ADS-B (EGXW / WTN)
01:46AM 52.8685 -2.6100 141° Southeast 503 579 33,400 -2,040 Descending FlightAware ADS-B
01:47AM 52.8324 -2.5619 141° Southeast 498 573 32,700 -1,980 Descending FlightAware ADS-B (EGFH / SWS)
01:47AM 52.8082 -2.5297 141° Southeast 495 570 32,300 -1,800 Descending FlightAware ADS-B
01:47AM 52.7781 -2.4897 141° Southeast 484 557 31,800 -1,980 Descending FlightAware ADS-B (EGFF / CWL)
01:47AM 52.7327 -2.4296 141° Southeast 488 562 30,900 -2,100 Descending FlightAware ADS-B
01:48AM 52.7222 -2.4157 141° Southeast 485 558 30,700 -1,800 Descending FlightAware ADS-B (EGFH / SWS)
01:48AM 52.6802 -2.3595 141° Southeast 478 550 30,000 -2,040 Descending FlightAware ADS-B
01:48AM 52.6757 -2.3532 140° Southeast 478 550 29,800 -2,100 Descending FlightAware ADS-B (EGXW / WTN)
01:48AM 52.6455 -2.3115 140° Southeast 473 544 29,200 -1,800 Descending FlightAware ADS-B (EGXW / WTN)
01:48AM 52.6291 -2.2887 140° Southeast 472 543 29,000 -1,620 Descending FlightAware ADS-B
01:49AM 52.6110 -2.2637 140° Southeast 463 533 28,700 -1,020 Descending FlightAware ADS-B (EGFF / CWL)
01:49AM 52.6120 -2.2652 320° Northwest 465 535 28,700 -2,040 Level FlightAware ADS-B (EGCD)
01:49AM 52.5955 -2.2427 140° Southeast 463 533 28,400 -2,820 Descending FlightAware ADS-B (EGNY)
01:49AM 52.5780 -2.2191 141° Southeast 465 535 28,100 -1,680 Descending FlightAware ADS-B
01:49AM 52.5772 -2.2180 140° Southeast 459 528 28,100 -1,440 Level FlightAware ADS-B
01:49AM 52.5288 -2.1522 140° Southeast 455 524 27,400 -1,380 Descending FlightAware ADS-B
01:50AM 52.5264 -2.1489 140° Southeast 455 524 27,400 -1,500 Level FlightAware ADS-B (EGFH / SWS)
01:50AM 52.5194 -2.1395 141° Southeast 454 522 27,200 -2,220 Descending FlightAware ADS-B (EGFH / SWS)
01:50AM 52.5069 -2.1237 142° Southeast 456 525 27,000 -2,160 Descending FlightAware ADS-B
01:50AM 52.4945 -2.1099 146° Southeast 460 529 26,600 -2,100 Descending FlightAware ADS-B
01:50AM 52.4749 -2.0904 149° Southeast 460 529 26,300 -1,500 Descending FlightAware ADS-B (EGFH / SWS)
01:50AM 52.4509 -2.0674 150° Southeast 459 528 26,100 -1,260 Descending FlightAware ADS-B
01:50AM 52.4281 -2.0459 150° Southeast 448 516 25,800 -2,040 Descending FlightAware ADS-B
01:51AM 52.4071 -2.0260 150° Southeast 453 521 25,300 -2,040 Descending FlightAware ADS-B (EGFH / SWS)
01:51AM 52.3958 -2.0151 150° Southeast 451 519 25,200 -1,320 Descending FlightAware ADS-B
01:51AM 52.3510 -1.9730 150° Southeast 448 516 24,600 -1,620 Descending FlightAware ADS-B
01:51AM 52.3415 -1.9640 150° Southeast 447 514 24,400 -1,980 Descending FlightAware ADS-B
01:52AM 52.2878 -1.9138 150° Southeast 443 510 23,500 -1,860 Descending FlightAware ADS-B
01:52AM 52.2834 -1.9097 150° Southeast 443 510 23,400 -1,560 Descending FlightAware ADS-B
01:52AM 52.2341 -1.8632 150° Southeast 436 502 22,700 -1,500 Descending FlightAware ADS-B
01:52AM 52.2250 -1.8542 149° Southeast 435 501 22,500 -2,040 Descending FlightAware ADS-B
01:53AM 52.1815 -1.8114 149° Southeast 435 501 21,700 -2,280 Descending FlightAware ADS-B
01:53AM 52.1591 -1.7889 148° Southeast 436 502 21,200 -2,340 Descending FlightAware ADS-B (EGDM)
01:53AM 52.1514 -1.7805 146° Southeast 436 502 21,000 -2,040 Descending FlightAware ADS-B
01:53AM 52.1435 -1.7711 144° Southeast 428 493 20,900 -1,440 Descending FlightAware ADS-B
01:54AM 52.1052 -1.7197 140° Southeast 421 484 20,300 -1,500 Descending FlightAware ADS-B
01:54AM 52.0955 -1.7062 140° Southeast 419 482 20,100 -1,260 Descending FlightAware ADS-B
01:54AM 52.0710 -1.6719 139° Southeast 408 470 19,800 -1,320 Descending FlightAware ADS-B
01:54AM 52.0667 -1.6658 139° Southeast 408 470 19,700 -2,040 Descending FlightAware ADS-B (EGUO)
01:54AM 52.0616 -1.6587 139° Southeast 413 475 19,600 -1,740 Descending FlightAware ADS-B
01:54AM 52.0565 -1.6515 139° Southeast 446 513 19,500 -780 Descending FlightAware ADS-B (EGNY)
01:54AM 52.0509 -1.6435 139° Southeast 411 473 19,500 -1,140 Level FlightAware ADS-B (EGDM)
01:55AM 52.0186 -1.5977 139° Southeast 403 464 19,000 -1,440 Descending FlightAware ADS-B
01:55AM 52.0096 -1.5849 139° Southeast 399 459 18,800 -1,620 Descending FlightAware ADS-B (EGDM)
01:55AM 51.9856 -1.5513 139° Southeast 396 456 18,400 -1,320 Descending FlightAware ADS-B (EGLC / LCY)
01:55AM 51.9771 -1.5393 139° Southeast 394 453 18,300 -1,200 Descending FlightAware ADS-B
01:55AM 51.9575 -1.5120 139° Southeast 385 443 18,000 -1,620 Descending FlightAware ADS-B
01:56AM 51.9356 -1.4817 139° Southeast 389 448 17,500 -1,800 Descending FlightAware ADS-B
01:56AM 51.9180 -1.4573 139° Southeast 389 448 17,100 -1,860 Descending FlightAware ADS-B (EGLC / LCY)
01:56AM 51.9034 -1.4374 140° Southeast 383 441 16,800 -1,440 Descending FlightAware ADS-B
01:56AM 51.8936 -1.4239 140° Southeast 388 447 16,700 -1,800 Descending FlightAware ADS-B
01:56AM 51.8607 -1.3792 140° Southeast 379 436 15,900 -2,280 Descending FlightAware ADS-B
01:57AM 51.8564 -1.3731 139° Southeast 383 441 15,700 -3,480 Descending FlightAware ADS-B
01:57AM 51.8520 -1.3670 139° Southeast 391 450 15,500 -3,300 Descending FlightAware ADS-B
01:57AM 51.8416 -1.3525 139° Southeast 391 450 15,100 -2,340 Descending FlightAware ADS-B
01:57AM 51.8239 -1.3276 139° Southeast 391 450 14,700 -1,920 Descending FlightAware ADS-B (EGUO)
01:57AM 51.8190 -1.3203 137° Southeast 394 453 14,600 -1,800 Descending FlightAware ADS-B
01:57AM 51.8113 -1.3079 135° Southeast 390 449 14,400 -1,560 Descending FlightAware ADS-B
01:58AM 51.7828 -1.2551 131° Southeast 381 438 13,800 -1,620 Descending FlightAware ADS-B
01:58AM 51.7740 -1.2383 130° Southeast 377 434 13,500 -1,440 Descending FlightAware ADS-B (EGLF / FAB)
01:58AM 51.7449 -1.1804 129° Southeast 366 421 13,000 -1,380 Descending FlightAware ADS-B
01:58AM 51.7394 -1.1655 121° Southeast 358 412 12,800 -2,280 Descending FlightAware ADS-B
01:58AM 51.7382 -1.1617 117° Southeast 356 410 12,700 -2,040 Descending FlightAware ADS-B
01:58AM 51.7332 -1.1427 113° Southeast 350 403 12,500 -900 Descending FlightAware ADS-B
01:59AM 51.7208 -1.0860 109° East 330 380 12,200 -600 Descending FlightAware ADS-B (EGDM)
01:59AM 51.7173 -1.0699 110° East 325 374 12,200  Level FlightAware ADS-B
01:59AM 51.7170 -1.0688 113° Southeast 350 403 12,200 -3,480 Level FlightAware ADS-B (EGWE)
01:59AM 51.7135 -1.0533 110° East 318 366 11,800 -1,260 Descending FlightAware ADS-B (EGWE)
01:59AM 51.7021 -1.0029 110° East 311 358 11,600 -600 Descending FlightAware ADS-B
02:00AM 51.6984 -0.9859 109° East 303 349 11,500 -780 Descending FlightAware ADS-B (EGLF / FAB)
02:00AM 51.6885 -0.9398 109° East 286 329 11,200 -1,020 Descending FlightAware ADS-B
02:00AM 51.6849 -0.9229 109° East 283 326 11,000 -1,740 Descending FlightAware ADS-B (EGLF / FAB)
02:00AM 51.6794 -0.8974 109° East 281 323 10,600 -1,560 Descending FlightAware ADS-B
02:00AM 51.6736 -0.8694 109° East 278 320 10,300 -1,260 Descending FlightAware ADS-B (EGWE)
02:01AM 51.6699 -0.8507 108° East 278 320 10,100 -1,440 Descending FlightAware ADS-B
02:01AM 51.6671 -0.8367 108° East 278 320 9,900 -1,200 Descending FlightAware ADS-B (EGLC / LCY)
02:01AM 51.6641 -0.8210 107° East 276 318 9,800 -1,140 Descending FlightAware ADS-B
02:01AM 51.6641 -0.8210 184° South 276 318 9,600 -1,500 Descending FlightAware ADS-B (EGWE)
02:01AM 51.6581 -0.7896 107° East 275 316 9,400 -1,320 Descending FlightAware ADS-B
02:01AM 51.6538 -0.7672 107° East 275 316 9,200 -1,020 Descending FlightAware ADS-B
02:01AM 51.6533 -0.7648 108° East 275 316 9,200 -1,440 Level FlightAware ADS-B (EGLF / FAB)
02:02AM 51.6491 -0.7416 106° East 274 315 8,900 -1,620 Descending FlightAware ADS-B
02:02AM 51.6486 -0.7387 106° East 274 315 8,800 -1,140 Descending FlightAware ADS-B (EGLC / LCY)
02:02AM 51.6438 -0.7114 106° East 272 313 8,600 -1,140 Descending FlightAware ADS-B
02:02AM 51.6427 -0.7048 106° East 272 313 8,500 -1,680 Descending FlightAware ADS-B (EGLF / FAB)
02:02AM 51.6398 -0.6890 106° East 272 313 8,300 -1,020 Descending FlightAware ADS-B
02:02AM 51.6367 -0.6716 106° East 270 311 8,200 -780 Descending FlightAware ADS-B
02:02AM 51.6344 -0.6587 106° East 269 310 8,100 -780 Descending FlightAware ADS-B
02:02AM 51.6310 -0.6403 107° East 270 311 8,000 -420 Descending FlightAware ADS-B (EGLC / LCY)
02:03AM 51.6289 -0.6290 107° East 271 312 8,000  Level FlightAware ADS-B
02:03AM 51.6254 -0.6097 107° East 272 313 8,000  Level FlightAware ADS-B (EGWE)
02:03AM 51.6232 -0.5979 106° East 274 315 8,000  Level FlightAware ADS-B
02:03AM 51.6193 -0.5768 107° East 274 315 8,000  Level FlightAware ADS-B
02:03AM 51.6189 -0.5748 106° East 274 315 8,000  Level FlightAware ADS-B (EGLC / LCY)
02:03AM 51.6139 -0.5473 106° East 273 314 8,000  Level FlightAware ADS-B
02:03AM 51.6115 -0.5341 106° East 273 314 8,000  Level FlightAware ADS-B (EGLC / LCY)
02:04AM 51.6077 -0.5136 107° East 274 315 8,000 -300 Level FlightAware ADS-B
02:04AM 51.6045 -0.4970 107° East 272 313 7,900 -780 Descending FlightAware ADS-B (EGLC / LCY)
02:04AM 51.6019 -0.4829 107° East 273 314 7,800 -720 Descending FlightAware ADS-B
02:04AM 51.5976 -0.4600 107° East 271 312 7,700 -840 Descending FlightAware ADS-B (EGLF / FAB)
02:04AM 51.5963 -0.4529 106° East 271 312 7,600 -840 Descending FlightAware ADS-B
02:04AM 51.5925 -0.4320 106° East 272 313 7,500 -720 Descending FlightAware ADS-B
02:04AM 51.5905 -0.4211 106° East 273 314 7,400 -780 Descending FlightAware ADS-B
02:04AM 51.5877 -0.4055 106° East 273 314 7,300 -840 Descending FlightAware ADS-B
02:05AM 51.5851 -0.3917 107° East 272 313 7,200 -1,020 Descending FlightAware ADS-B
02:05AM 51.5805 -0.3665 106° East 268 308 7,000 -1,140 Descending FlightAware ADS-B
02:05AM 51.5793 -0.3603 107° East 269 310 6,900 -1,140 Descending FlightAware ADS-B
02:05AM 51.5750 -0.3375 107° East 269 310 6,700 -780 Descending FlightAware ADS-B (EGLC / LCY)
02:05AM 51.5737 -0.3309 107° East 269 310 6,700 -720 Level FlightAware ADS-B
02:05AM 51.5681 -0.3020 107° East 261 300 6,500 -780 Descending FlightAware ADS-B
02:05AM 51.5679 -0.3011 108° East 260 299 6,500 -1,140 Level FlightAware ADS-B (EGLC / LCY)
02:06AM 51.5626 -0.2736 107° East 253 291 6,200 -1,020 Descending FlightAware ADS-B
02:06AM 51.5572 -0.2460 107° East 245 282 6,000 -780 Descending FlightAware ADS-B
02:06AM 51.5518 -0.2194 108° East 239 275 5,800 -900 Descending FlightAware ADS-B
02:06AM 51.5510 -0.2157 109° East 239 275 5,700 -1,200 Descending FlightAware ADS-B
02:06AM 51.5465 -0.1939 108° East 238 274 5,500 -900 Descending FlightAware ADS-B
02:07AM 51.5436 -0.1802 108° East 235 270 5,400 -720 Descending FlightAware ADS-B
02:07AM 51.5407 -0.1661 109° East 232 267 5,300 -780 Descending FlightAware ADS-B
02:07AM 51.5418 -0.1711 289° West 223 257 5,200 -840 Descending FlightAware ADS-B (EGWE)
02:07AM 51.5357 -0.1428 109° East 216 249 5,100 -840 Descending FlightAware ADS-B
02:07AM 51.5336 -0.1330 109° East 210 242 5,000 -840 Descending FlightAware ADS-B (EGLC / LCY)
02:07AM 51.5310 -0.1221 111° Southeast 206 237 4,900 -1,020 Descending FlightAware ADS-B
02:07AM 51.5288 -0.1155 118° Southeast 205 236 4,800 -1,440 Descending FlightAware ADS-B
02:07AM 51.5263 -0.1103 127° Southeast 206 237 4,600 -1,380 Descending FlightAware ADS-B
02:08AM 51.5148 -0.0989 148° Southeast 213 245 4,400 -1,620 Descending FlightAware ADS-B
02:08AM 51.5101 -0.0972 167° South 217 250 4,200 -2,040 Descending FlightAware ADS-B
02:08AM 51.5097 -0.0972 178° South 218 251 4,200 -2,040 Level FlightAware ADS-B (EGLC / LCY)
02:08AM 51.5071 -0.0968 175° South 219 252 4,100 -2,040 Descending FlightAware ADS-B
02:08AM 51.5091 -0.0970 356° North 221 254 4,100 -2,040 Level FlightAware ADS-B
02:08AM 51.5002 -0.0975 182° South 222 255 3,900 -2,040 Descending FlightAware ADS-B
02:08AM 51.5002 -0.0975 184° South 224 258 3,900 -1,020 Level FlightAware ADS-B (EGLC / LCY)
02:08AM 51.4951 -0.0999 196° South 223 257 3,800 -1,200 Descending FlightAware ADS-B
02:08AM 51.4905 -0.1038 208° Southwest 222 255 3,700 -1,800 Descending FlightAware ADS-B
02:08AM 51.4866 -0.1089 219° Southwest 221 254 3,500 -1,800 Descending FlightAware ADS-B
02:08AM 51.4837 -0.1141 228° Southwest 219 252 3,400 -900 Descending FlightAware ADS-B (EGLC / LCY)
02:08AM 51.4819 -0.1179 233° Southwest 218 251 3,400 -1,020 Level FlightAware ADS-B
02:08AM 51.4799 -0.1224 234° Southwest 216 249 3,300 -900 Descending FlightAware ADS-B
02:08AM 51.4777 -0.1276 236° Southwest 214 246 3,300 -600 Level FlightAware ADS-B
02:09AM 51.4692 -0.1499 239° Southwest 210 242 3,100 -660 Descending FlightAware ADS-B
02:09AM 51.4687 -0.1519 247° West 211 243 3,100 -900 Level FlightAware ADS-B
02:09AM 51.4675 -0.1592 255° West 204 235 3,000 -900 Descending FlightAware ADS-B
02:09AM 51.4669 -0.1634 258° West 203 234 3,000  Level FlightAware ADS-B
02:09AM 51.4666 -0.1662 260° West 202 232 3,000 -540 Level FlightAware ADS-B
02:09AM 51.4657 -0.1805 264° West 196 226 2,900 -720 Descending FlightAware ADS-B
02:09AM 51.4655 -0.1907 268° West 194 223 2,800 -960 Descending FlightAware ADS-B
02:09AM 51.4657 -0.2061 271° West 194 223 2,600 -780 Descending FlightAware ADS-B
02:09AM 51.4656 -0.2135 269° West 195 224 2,600 -1,200 Level FlightAware ADS-B
02:09AM 51.4657 -0.2106 87° East 195 224 2,500 -1,140 Descending FlightAware ADS-B (EGLF / FAB)
02:10AM 51.4655 -0.2354 269° West 194 223 2,300 -1,080 Descending FlightAware ADS-B
02:10AM 51.4654 -0.2609 270° West 189 217 1,900 -1,080 Descending FlightAware ADS-B (EGLF / FAB)
02:10AM 51.4654 -0.2746 270° West 190 219 1,800 -780 Descending FlightAware ADS-B
02:10AM 51.4653 -0.2813 269° West 180 207 1,700 -1,140 Descending FlightAware ADS-B
02:10AM 51.4652 -0.3098 270° West 168 193 1,300 -1,020 Descending FlightAware ADS-B (EGLC / LCY)
02:11AM 51.4652 -0.3295 270° West 155 178 1,100 -840 Descending FlightAware ADS-B (EGLF / FAB)
02:11AM 51.4652 -0.3496 270° West 143 165 800 -720 Descending FlightAware ADS-B (EGLF / FAB)
02:11AM 51.4651 -0.3726 270° West 138 159 600 -720 Descending FlightAware ADS-B
02:12AM 51.4651 -0.3928 270° West 137 158 300 -960 Descending FlightAware ADS-B